NCAR-RAP Real-Time Weather Data

Output produced by METARs form (16 August 2018  19:24 UTC)
found at http://weather.rap.ucar.edu/surface/
 
RJOT 161200Z 24006KT 9999 FEW020 BKN040 25/24 Q1011
RJOT 161100Z 24007KT 9999 FEW020 SCT025 BKN/// 25/25 Q1010
RJOT 161000Z 24006KT 210V280 9999 FEW007 BKN060 BKN/// 26/24 Q1010
RJOT 160900Z 27008KT 9999 VCSH FEW005 SCT030 BKN150 26/24 Q1009
RJOT 160800Z 28007KT 9999 VCSH FEW015 FEW020CB SCT025 BKN080 27/25 Q1009
RJOT 160700Z 30011KT 270V330 9999 FEW015 SCT025 BKN140 29/25 Q1009
RJOT 160600Z 29006KT 250V340 9999 VCSH FEW015 SCT025 BKN090 30/25 Q1009
RJOT 160500Z 31006KT 270V010 9999 SCT020 BKN120 30/26 Q1009
RJOT 160400Z VRB02KT 9999 FEW005 SCT100 BKN/// 30/26 Q1009
RJOT 160300Z 31003KT 270V010 9999 -SHRA FEW005 SCT015 BKN100 27/25 Q1010
RJOT 160200Z 28004KT 200V320 9999 FEW002 SCT100 BKN170 28/25 Q1010
RJOT 160100Z VRB02KT 9999 VCSH FEW002 SCT045 BKN100 26/25 Q1010
RJOT 160000Z 26004KT 9000 -SHRA FEW002 SCT015 BKN040 25/24 Q1010
RJOT 152300Z 13002KT 9999 VCSH FEW003 SCT045 BKN080 26/25 Q1010
RJOT 152200Z 13005KT 080V170 9999 FEW003 SCT120 BKN/// 25/24 Q1009
RJOT 152120Z 14005KT 090V190 9999 FEW003 SCT150 BKN/// 23/23 Q1009 RMK 1ST003 3AC150 A2981
RJOT 151240Z 16002KT 9999 -SHRA FEW002 SCT020 BKN090 25/25 Q1012 RMK 1ST002 3CU020 5AC090 A2989
RJOT 151207Z VRB02KT 9999 SHRA FEW002 SCT020 BKN040 25/25 Q1011 RMK 1ST002 3CU020 5CU040 A2988
RJOT 151200Z 21003KT 150V240 9999 +SHRA FEW002 SCT020 BKN030 25/24 Q1012
RJOT 151100Z 09003KT 9999 -SHRA FEW002 SCT020 BKN100 25/25 Q1011
RJOT 151000Z 09004KT 9999 -SHRA FEW002 SCT015 BKN100 25/25 Q1011
RJOT 150900Z 14004KT 090V160 9999 SHRA FEW002 SCT015 BKN030 26/25 Q1011
RJOT 150800Z VRB01KT 9999 -SHRA FEW002 SCT015 BKN100 26/26 Q1011
RJOT 150700Z 07003KT 9999 -SHRA FEW002 SCT015 BKN030 26/26 Q1011
RJOT 150632Z 06004KT 010V080 9999 SHRA FEW002 SCT010 BKN025 26/26 Q1011 RMK 1ST002 3CU010 5CU025 A2987
RJOT 150600Z 07003KT 9999 -SHRA FEW002 SCT015 BKN030 27/26 Q1011
RJOT 150500Z VRB01KT 9999 -SHRA FEW002 SCT020 BKN040 28/27 Q1012
RJOT 150400Z VRB01KT 9999 -SHRA FEW001 SCT040 BKN080 27/26 Q1012
RJOT 150300Z VRB02KT 9999 -SHRA FEW001 SCT040 BKN100 27/26 Q1012
RJOT 150200Z 10003KT 060V140 9999 -SHRA FEW001 SCT040 BKN100 27/27 Q1012
RJOT 150100Z 13003KT 080V180 9999 -SHRA FEW002 SCT040 BKN100 27/26 Q1012
RJOT 150000Z VRB02KT 9999 -SHRA FEW001 SCT040 BKN100 26/25 Q1012
RJOT 142300Z VRB02KT 9999 -SHRA FEW002 SCT040 BKN100 26/25 Q1012
RJOT 142200Z 07003KT 9999 -SHRA FEW002 SCT045 BKN100 25/25 Q1011
RJOT 142120Z 09004KT 9999 -SHRA FEW005 SCT040 BKN100 25/24 Q1011 RMK 1ST005 3CU040 6AC100 A2988
RJOT 141200Z 09008KT 050V130 9999 FEW020 SCT/// 29/22 Q1012
RJOT 141100Z 10005KT 050V150 9999 FEW020 SCT/// 29/21 Q1012
RJOT 141000Z 09004KT 9999 FEW020 BKN/// 30/20 Q1011
RJOT 140900Z 11006KT 070V150 9999 FEW020 BKN/// 32/20 Q1011
RJOT 140800Z 10009KT 070V140 9999 FEW020 SCT/// 34/20 Q1010